createdAt,value
2022-07-29T00:01:03.059Z,64.65
2022-07-29T00:03:29.975Z,64.91
2022-07-29T00:05:56.940Z,64.55
2022-07-29T00:08:24.076Z,64.74
2022-07-29T00:10:52.250Z,64.62
2022-07-29T00:13:19.168Z,64.87
2022-07-29T00:16:04.736Z,64.89
2022-07-29T00:18:32.345Z,64.91
2022-07-29T00:20:59.290Z,64.72
2022-07-29T00:23:26.490Z,64.74
2022-07-29T00:25:53.397Z,64.90
2022-07-29T00:28:20.304Z,64.80
2022-07-29T00:30:47.159Z,64.71
2022-07-29T00:33:14.023Z,64.74
2022-07-29T00:35:46.475Z,64.66
2022-07-29T00:38:18.619Z,64.92
2022-07-29T00:40:47.104Z,64.90
2022-07-29T00:43:15.204Z,64.98
2022-07-29T00:45:42.803Z,64.71
2022-07-29T00:48:10.156Z,64.70
2022-07-29T00:50:38.171Z,64.71
2022-07-29T00:53:07.109Z,64.80
2022-07-29T00:55:34.287Z,64.67
2022-07-29T00:58:01.614Z,64.88
2022-07-29T01:00:29.922Z,64.70
2022-07-29T01:02:57.006Z,64.84
2022-07-29T01:05:50.070Z,64.82
2022-07-29T01:08:16.638Z,64.75
2022-07-29T01:10:45.257Z,65.04
2022-07-29T01:13:13.280Z,64.77
2022-07-29T01:15:47.183Z,64.99
2022-07-29T01:18:33.163Z,65.07
2022-07-29T01:21:16.181Z,64.84
2022-07-29T01:23:55.846Z,64.78
2022-07-29T01:26:55.810Z,64.99
2022-07-29T01:29:35.967Z,64.73
2022-07-29T01:32:22.609Z,64.75
2022-07-29T01:35:12.161Z,64.99
2022-07-29T01:37:50.222Z,64.82
2022-07-29T01:40:34.692Z,64.98
2022-07-29T01:43:07.494Z,64.98
2022-07-29T01:45:44.816Z,64.95
2022-07-29T01:48:33.144Z,64.93
2022-07-29T01:51:05.838Z,65.11
2022-07-29T01:53:44.021Z,64.87
2022-07-29T01:56:13.540Z,65.09
2022-07-29T01:58:44.199Z,64.78
2022-07-29T02:01:13.070Z,65.06
2022-07-29T02:03:44.045Z,65.03
2022-07-29T02:06:12.580Z,64.93
2022-07-29T02:08:40.910Z,64.96
2022-07-29T02:11:09.674Z,65.02
2022-07-29T02:13:38.645Z,65.03
2022-07-29T02:16:08.546Z,65.00
2022-07-29T02:18:38.420Z,64.97
2022-07-29T02:21:06.338Z,65.08
2022-07-29T02:23:50.317Z,65.02
2022-07-29T02:26:20.530Z,64.89
2022-07-29T02:28:49.858Z,64.92
2022-07-29T02:31:20.979Z,64.91
2022-07-29T02:33:49.351Z,64.90
2022-07-29T02:36:17.302Z,64.92
2022-07-29T02:38:52.773Z,65.01
2022-07-29T02:41:30.873Z,65.02
2022-07-29T02:44:06.470Z,65.19
2022-07-29T02:46:37.045Z,65.14
2022-07-29T02:49:22.370Z,64.77
2022-07-29T02:52:04.402Z,64.95
2022-07-29T02:54:31.231Z,65.17
2022-07-29T02:57:01.950Z,64.84
2022-07-29T02:59:32.184Z,64.92
2022-07-29T03:02:00.319Z,64.82
2022-07-29T03:04:30.445Z,65.10
2022-07-29T03:07:00.613Z,64.86
2022-07-29T03:09:29.284Z,65.09
2022-07-29T03:11:57.797Z,65.14
2022-07-29T03:14:25.321Z,64.90
2022-07-29T03:16:53.026Z,65.00
2022-07-29T03:19:21.578Z,65.19
2022-07-29T03:21:48.774Z,64.95
2022-07-29T03:24:31.808Z,64.92
2022-07-29T03:26:59.266Z,64.84
2022-07-29T03:29:33.235Z,64.80
2022-07-29T03:32:04.278Z,65.01
2022-07-29T03:34:34.435Z,65.08
2022-07-29T03:37:01.370Z,65.02
2022-07-29T03:39:32.595Z,64.98
2022-07-29T03:42:02.357Z,64.88
2022-07-29T03:44:30.485Z,64.99
2022-07-29T03:47:01.246Z,64.84
2022-07-29T03:49:29.179Z,65.03
2022-07-29T03:51:56.276Z,64.97
2022-07-29T03:54:23.942Z,65.05
2022-07-29T03:56:53.306Z,65.01
2022-07-29T03:59:21.992Z,64.98
2022-07-29T04:01:50.188Z,65.09
2022-07-29T04:04:18.118Z,65.14
2022-07-29T04:06:48.333Z,65.20
2022-07-29T04:09:15.974Z,65.22
2022-07-29T04:12:02.265Z,64.92
2022-07-29T04:14:30.362Z,65.13
2022-07-29T04:16:57.219Z,64.97
2022-07-29T04:19:24.088Z,65.14
2022-07-29T04:21:51.033Z,65.19
2022-07-29T04:24:18.599Z,64.90
2022-07-29T04:26:47.794Z,65.11
2022-07-29T04:29:15.580Z,64.83
2022-07-29T04:31:43.498Z,64.94
2022-07-29T04:34:11.549Z,65.05
2022-07-29T04:36:38.427Z,64.95
2022-07-29T04:39:05.464Z,64.91
2022-07-29T04:41:33.288Z,64.96
2022-07-29T04:44:02.192Z,64.93
2022-07-29T04:46:29.306Z,64.94
2022-07-29T04:48:56.439Z,65.05
2022-07-29T04:51:23.440Z,64.87
2022-07-29T04:53:50.338Z,64.97
2022-07-29T04:56:17.146Z,64.97
2022-07-29T04:58:43.993Z,64.86
2022-07-29T05:01:10.905Z,65.12
2022-07-29T05:03:37.817Z,65.08
2022-07-29T05:06:04.769Z,65.04
2022-07-29T05:08:31.587Z,64.96
2022-07-29T05:10:58.419Z,64.78
2022-07-29T05:13:45.410Z,64.97
2022-07-29T05:16:14.535Z,65.27
2022-07-29T05:18:41.878Z,65.13
2022-07-29T05:21:08.801Z,65.17
2022-07-29T05:23:35.724Z,65.07
2022-07-29T05:26:02.879Z,64.94
2022-07-29T05:28:29.849Z,64.96
2022-07-29T05:30:57.489Z,64.91
2022-07-29T05:33:35.151Z,64.94
2022-07-29T05:36:06.743Z,64.99
2022-07-29T05:38:34.384Z,65.13
2022-07-29T05:41:01.391Z,65.00
2022-07-29T05:43:30.293Z,65.18
2022-07-29T05:45:58.051Z,65.18
2022-07-29T05:48:25.596Z,65.26
2022-07-29T05:50:52.617Z,65.11
2022-07-29T05:53:20.870Z,65.02
2022-07-29T05:55:49.093Z,65.23
2022-07-29T05:58:16.388Z,65.06
2022-07-29T06:00:43.650Z,65.16
2022-07-29T06:03:10.735Z,64.90
2022-07-29T06:05:37.891Z,65.13
2022-07-29T06:08:07.240Z,65.21
2022-07-29T06:10:35.711Z,65.20
2022-07-29T06:13:02.893Z,65.21
2022-07-29T06:15:29.958Z,65.15
2022-07-29T06:17:59.111Z,65.15
2022-07-29T06:20:28.304Z,64.78
2022-07-29T06:22:55.132Z,64.96
2022-07-29T06:25:22.052Z,65.03
2022-07-29T06:27:48.966Z,65.15
2022-07-29T06:30:15.801Z,65.01
2022-07-29T06:32:43.475Z,65.16
2022-07-29T06:35:41.386Z,64.99
2022-07-29T06:37:58.091Z,65.04
2022-07-29T06:40:45.675Z,65.23
2022-07-29T06:43:12.747Z,65.33
2022-07-29T06:45:42.576Z,65.21
2022-07-29T06:48:10.787Z,65.17
2022-07-29T06:50:38.009Z,65.35
2022-07-29T06:53:05.341Z,65.14
2022-07-29T06:55:32.380Z,65.36
2022-07-29T06:57:59.295Z,65.37
2022-07-29T07:00:26.525Z,65.29
2022-07-29T07:02:53.574Z,65.23
2022-07-29T07:05:20.579Z,65.29
2022-07-29T07:07:47.444Z,65.21
2022-07-29T07:10:14.307Z,65.07
2022-07-29T07:12:41.199Z,65.27
2022-07-29T07:15:08.360Z,65.29
2022-07-29T07:17:35.315Z,65.43
2022-07-29T07:20:02.236Z,65.26
2022-07-29T07:22:29.080Z,65.27
2022-07-29T07:24:55.931Z,65.22
2022-07-29T07:27:22.768Z,65.29
2022-07-29T07:29:50.058Z,65.23
2022-07-29T07:32:17.832Z,65.41
2022-07-29T07:34:44.787Z,65.47
2022-07-29T07:37:11.886Z,65.41
2022-07-29T07:39:39.090Z,65.49
2022-07-29T07:42:06.119Z,65.77
2022-07-29T07:44:36.469Z,65.68
2022-07-29T07:47:14.023Z,65.60
2022-07-29T07:49:42.312Z,65.65
2022-07-29T07:52:11.895Z,65.40
2022-07-29T07:54:38.861Z,65.59
2022-07-29T07:57:05.896Z,65.28
2022-07-29T07:59:32.860Z,65.39
2022-07-29T08:01:59.827Z,65.36
2022-07-29T08:04:29.002Z,65.48
2022-07-29T08:06:58.842Z,65.16
2022-07-29T08:09:30.144Z,65.14
2022-07-29T08:11:59.792Z,65.28
2022-07-29T08:14:26.766Z,65.33
2022-07-29T08:16:53.932Z,65.15
2022-07-29T08:19:21.644Z,65.25
2022-07-29T08:21:49.126Z,65.14
2022-07-29T08:24:35.015Z,64.96
2022-07-29T08:27:02.360Z,65.28
2022-07-29T08:29:29.652Z,65.10
2022-07-29T08:31:57.242Z,65.13
2022-07-29T08:34:27.659Z,65.24
2022-07-29T08:36:55.122Z,65.08
2022-07-29T08:39:22.112Z,64.86
2022-07-29T08:41:57.216Z,65.19
2022-07-29T08:44:31.163Z,64.91
2022-07-29T08:46:58.425Z,65.05
2022-07-29T08:49:25.561Z,64.91
2022-07-29T08:51:55.407Z,64.96
2022-07-29T08:54:24.693Z,65.04
2022-07-29T08:56:52.391Z,64.95
2022-07-29T08:59:25.908Z,64.84
2022-07-29T09:01:54.213Z,64.89
2022-07-29T09:04:23.504Z,64.85
2022-07-29T09:06:53.141Z,64.63
2022-07-29T09:09:20.378Z,64.62
2022-07-29T09:11:48.230Z,64.48
2022-07-29T09:14:15.542Z,64.70
2022-07-29T09:16:53.157Z,64.72
2022-07-29T09:19:36.538Z,64.87
2022-07-29T09:22:08.566Z,64.85
2022-07-29T09:24:46.558Z,64.67
2022-07-29T09:27:22.660Z,64.89
2022-07-29T09:30:07.836Z,64.69
2022-07-29T09:32:55.095Z,64.62
2022-07-29T09:35:24.522Z,64.57
2022-07-29T09:37:51.810Z,64.81
2022-07-29T09:40:23.783Z,64.39
2022-07-29T09:42:52.265Z,64.66
2022-07-29T09:45:33.608Z,64.68
2022-07-29T09:48:13.870Z,64.54
2022-07-29T09:50:41.886Z,64.58
2022-07-29T09:53:12.560Z,64.94
2022-07-29T09:55:53.137Z,64.40
2022-07-29T09:58:22.178Z,64.43
2022-07-29T10:00:50.967Z,64.50
2022-07-29T10:03:18.837Z,64.34
2022-07-29T10:05:46.816Z,64.23
2022-07-29T10:08:14.161Z,64.41
2022-07-29T10:10:44.065Z,64.38
2022-07-29T10:13:16.182Z,64.49
2022-07-29T10:15:47.592Z,64.12
2022-07-29T10:18:18.613Z,64.40
2022-07-29T10:20:45.733Z,64.58
2022-07-29T10:23:13.860Z,64.63
2022-07-29T10:25:45.982Z,64.50
2022-07-29T10:28:16.446Z,64.38
2022-07-29T10:30:45.834Z,64.38
2022-07-29T10:33:19.804Z,64.10
2022-07-29T10:36:24.842Z,64.05
2022-07-29T10:39:03.182Z,64.22
2022-07-29T10:41:44.487Z,64.09
2022-07-29T10:44:24.008Z,64.20
2022-07-29T10:46:52.414Z,64.11
2022-07-29T10:49:24.778Z,63.86
2022-07-29T10:52:06.496Z,64.08
2022-07-29T10:54:51.310Z,63.80
2022-07-29T10:57:53.165Z,64.02
2022-07-29T11:00:28.855Z,63.95
2022-07-29T11:02:57.924Z,64.29
2022-07-29T11:05:32.110Z,63.96
2022-07-29T11:08:21.047Z,64.34
2022-07-29T11:11:17.331Z,64.40
2022-07-29T11:13:52.406Z,64.26
2022-07-29T11:16:24.985Z,64.28
2022-07-29T11:19:26.351Z,63.91
2022-07-29T11:21:58.557Z,63.95
2022-07-29T11:24:32.436Z,64.02
2022-07-29T11:27:21.277Z,63.70
2022-07-29T11:29:57.348Z,63.87
2022-07-29T11:32:29.475Z,63.86
2022-07-29T11:35:37.907Z,63.90
2022-07-29T11:38:31.931Z,63.96
2022-07-29T11:41:22.757Z,63.81
2022-07-29T11:43:52.506Z,64.01
2022-07-29T11:46:50.314Z,64.00
2022-07-29T11:49:32.660Z,64.06
2022-07-29T11:52:04.976Z,63.93
2022-07-29T11:54:57.502Z,63.98
2022-07-29T11:57:22.406Z,64.07
2022-07-29T11:59:50.721Z,64.23
2022-07-29T12:02:36.445Z,64.29
2022-07-29T12:05:10.769Z,64.12
2022-07-29T12:07:41.121Z,63.96
2022-07-29T12:10:19.986Z,64.01
2022-07-29T12:12:57.065Z,64.05
2022-07-29T12:15:45.670Z,64.14
2022-07-29T12:18:18.230Z,64.26
2022-07-29T12:20:46.533Z,64.14
2022-07-29T12:23:14.288Z,64.02
2022-07-29T12:25:45.201Z,64.11
2022-07-29T12:28:26.429Z,64.28
2022-07-29T12:30:54.151Z,64.14
2022-07-29T12:33:31.364Z,64.19
2022-07-29T12:36:07.598Z,63.94
2022-07-29T12:38:37.103Z,63.80
2022-07-29T12:41:05.231Z,63.85
2022-07-29T12:43:32.641Z,63.90
2022-07-29T12:46:14.149Z,63.60
2022-07-29T12:48:43.870Z,63.81
2022-07-29T12:51:13.009Z,63.66
2022-07-29T12:53:40.589Z,63.87
2022-07-29T12:56:40.496Z,63.32
2022-07-29T12:59:25.557Z,63.83
2022-07-29T13:01:54.087Z,63.68
2022-07-29T13:04:37.817Z,63.68
2022-07-29T13:07:10.389Z,63.32
2022-07-29T13:09:42.683Z,58.65
2022-07-29T13:12:11.696Z,57.42
2022-07-29T13:14:39.850Z,57.86
2022-07-29T13:17:09.625Z,56.96
2022-07-29T13:19:51.451Z,55.95
2022-07-29T13:22:20.713Z,55.14
2022-07-29T13:24:48.879Z,55.09
2022-07-29T13:27:17.452Z,55.21
2022-07-29T13:29:44.707Z,55.28
2022-07-29T13:32:13.482Z,54.75
2022-07-29T13:34:41.195Z,54.57
2022-07-29T13:37:08.737Z,54.94
2022-07-29T13:39:35.839Z,54.90
2022-07-29T13:42:02.966Z,53.95
2022-07-29T13:44:29.996Z,55.95
2022-07-29T13:46:57.229Z,54.77
2022-07-29T13:49:25.851Z,54.30
2022-07-29T13:51:53.120Z,54.00
2022-07-29T13:54:20.115Z,55.26
2022-07-29T13:56:47.291Z,54.71
2022-07-29T13:59:14.366Z,54.83
2022-07-29T14:01:44.548Z,54.73
2022-07-29T14:04:12.853Z,53.79
2022-07-29T14:06:40.521Z,52.98
2022-07-29T14:09:07.648Z,53.13
2022-07-29T14:11:34.652Z,53.22
2022-07-29T14:14:01.621Z,53.12
2022-07-29T14:16:28.746Z,53.30
2022-07-29T14:18:55.790Z,52.98
2022-07-29T14:21:22.738Z,52.83
2022-07-29T14:23:49.800Z,53.20
2022-07-29T14:26:21.360Z,52.84
2022-07-29T14:28:49.281Z,53.01
2022-07-29T14:31:16.752Z,52.74
2022-07-29T14:33:44.068Z,53.38
2022-07-29T14:36:13.672Z,51.80
2022-07-29T14:38:41.700Z,51.78
2022-07-29T14:41:09.456Z,51.17
2022-07-29T14:43:36.673Z,51.27
2022-07-29T14:46:08.170Z,51.57
2022-07-29T14:48:35.526Z,50.98
2022-07-29T14:51:04.941Z,50.93
2022-07-29T14:53:32.354Z,51.82
2022-07-29T14:56:10.357Z,51.66
2022-07-29T14:58:49.068Z,51.97
2022-07-29T15:01:19.034Z,51.46
2022-07-29T15:03:46.013Z,51.43
2022-07-29T15:06:12.922Z,50.35
2022-07-29T15:08:39.951Z,49.76
2022-07-29T15:11:06.911Z,49.77
2022-07-29T15:13:35.179Z,49.84
2022-07-29T15:16:06.757Z,49.54
2022-07-29T15:18:33.719Z,49.28
2022-07-29T15:21:01.977Z,49.90
2022-07-29T15:23:29.153Z,49.52
2022-07-29T15:25:56.025Z,49.25
2022-07-29T15:28:23.400Z,49.31
2022-07-29T15:30:50.423Z,49.16
2022-07-29T15:33:17.382Z,51.18
2022-07-29T15:35:44.282Z,51.03
2022-07-29T15:38:11.329Z,50.28
2022-07-29T15:40:40.426Z,49.95
2022-07-29T15:43:07.504Z,49.21
2022-07-29T15:45:42.304Z,49.14
2022-07-29T15:48:14.688Z,49.25
2022-07-29T15:50:42.015Z,49.17
2022-07-29T15:53:09.087Z,50.00
2022-07-29T15:55:35.976Z,50.26
2022-07-29T15:58:02.980Z,50.26
2022-07-29T16:00:29.940Z,50.52
2022-07-29T16:02:56.869Z,51.15
2022-07-29T16:05:23.850Z,50.91
2022-07-29T16:07:50.842Z,50.54
2022-07-29T16:10:17.750Z,50.62
2022-07-29T16:12:44.662Z,50.90
2022-07-29T16:15:11.671Z,50.69
2022-07-29T16:17:39.534Z,50.80
2022-07-29T16:20:07.128Z,50.04
2022-07-29T16:22:34.122Z,50.27
2022-07-29T16:25:01.787Z,50.06
2022-07-29T16:27:35.583Z,49.90
2022-07-29T16:30:06.619Z,49.84
2022-07-29T16:32:33.866Z,50.10
2022-07-29T16:35:03.155Z,50.09
2022-07-29T16:37:37.361Z,50.86
2022-07-29T16:40:06.532Z,51.24
2022-07-29T16:42:46.743Z,51.13
2022-07-29T16:45:14.964Z,51.01
2022-07-29T16:47:42.405Z,51.23
2022-07-29T16:50:09.685Z,50.68
2022-07-29T16:52:37.904Z,50.36
2022-07-29T16:55:05.430Z,51.26
2022-07-29T16:57:32.768Z,51.65
2022-07-29T16:59:59.759Z,50.58
2022-07-29T17:02:26.760Z,50.26
2022-07-29T17:04:53.661Z,50.26
2022-07-29T17:07:20.541Z,50.80
2022-07-29T17:09:52.648Z,51.31
2022-07-29T17:12:22.034Z,51.12
2022-07-29T17:14:48.957Z,51.03
2022-07-29T17:17:20.885Z,51.21
2022-07-29T17:20:05.699Z,51.09
2022-07-29T17:22:32.900Z,51.29
2022-07-29T17:25:00.028Z,51.73
2022-07-29T17:27:27.956Z,51.86
2022-07-29T17:29:54.886Z,51.94
2022-07-29T17:32:21.942Z,51.58
2022-07-29T17:34:48.794Z,51.80
2022-07-29T17:37:15.990Z,52.23
2022-07-29T17:39:43.174Z,52.33
2022-07-29T17:42:12.250Z,52.61
2022-07-29T17:44:39.897Z,52.54
2022-07-29T17:47:07.940Z,52.73
2022-07-29T17:49:43.295Z,52.36
2022-07-29T17:52:10.620Z,52.20
2022-07-29T17:54:37.628Z,52.34
2022-07-29T17:57:04.710Z,52.24
2022-07-29T17:59:31.776Z,52.07
2022-07-29T18:01:58.854Z,52.43
2022-07-29T18:04:25.878Z,52.11
2022-07-29T18:06:52.876Z,52.42
2022-07-29T18:09:20.142Z,52.74
2022-07-29T18:11:49.097Z,52.44
2022-07-29T18:14:16.339Z,53.04
2022-07-29T18:16:43.367Z,53.30
2022-07-29T18:19:10.503Z,53.81
2022-07-29T18:21:51.871Z,53.59
2022-07-29T18:24:22.376Z,54.14
2022-07-29T18:26:49.320Z,53.92
2022-07-29T18:29:16.339Z,53.85
2022-07-29T18:31:43.577Z,53.88
2022-07-29T18:34:10.583Z,53.83
2022-07-29T18:36:37.467Z,53.76
2022-07-29T18:39:04.556Z,53.86
2022-07-29T18:41:31.675Z,54.25
2022-07-29T18:43:59.090Z,54.17
2022-07-29T18:46:26.085Z,54.40
2022-07-29T18:48:53.106Z,54.66
2022-07-29T18:51:20.314Z,54.90
2022-07-29T18:53:47.706Z,55.09
2022-07-29T18:56:14.838Z,55.12
2022-07-29T18:58:41.756Z,55.52
2022-07-29T19:01:09.918Z,55.48
2022-07-29T19:03:39.406Z,55.86
2022-07-29T19:06:06.389Z,55.63
2022-07-29T19:08:36.288Z,55.74
2022-07-29T19:11:03.567Z,55.90
2022-07-29T19:13:31.223Z,55.71
2022-07-29T19:15:58.379Z,56.07
2022-07-29T19:18:25.630Z,56.32
2022-07-29T19:20:52.558Z,56.50
2022-07-29T19:23:20.080Z,56.80
2022-07-29T19:25:53.229Z,56.54
2022-07-29T19:28:20.380Z,56.95
2022-07-29T19:30:47.438Z,56.60
2022-07-29T19:33:17.802Z,56.55
2022-07-29T19:35:47.625Z,57.08
2022-07-29T19:38:17.179Z,57.09
2022-07-29T19:40:44.853Z,56.92
2022-07-29T19:43:51.174Z,57.16
2022-07-29T19:45:59.224Z,57.09
2022-07-29T19:48:26.595Z,57.01
2022-07-29T19:50:53.578Z,56.86
2022-07-29T19:53:20.572Z,57.04
2022-07-29T19:55:47.808Z,57.25
2022-07-29T19:58:15.585Z,57.24
2022-07-29T20:00:43.682Z,57.47
2022-07-29T20:03:10.859Z,57.34
2022-07-29T20:05:38.259Z,57.50
2022-07-29T20:08:06.646Z,57.19
2022-07-29T20:10:36.304Z,57.35
2022-07-29T20:13:03.308Z,57.21
2022-07-29T20:15:30.978Z,57.11
2022-07-29T20:17:58.436Z,57.16
2022-07-29T20:20:26.249Z,57.13
2022-07-29T20:22:54.344Z,57.23
2022-07-29T20:25:21.923Z,57.27
2022-07-29T20:27:53.077Z,57.37
2022-07-29T20:30:21.242Z,57.48
2022-07-29T20:32:49.129Z,57.55
2022-07-29T20:35:16.637Z,57.42
2022-07-29T20:37:52.142Z,57.33
2022-07-29T20:40:26.194Z,57.43
2022-07-29T20:42:54.586Z,57.66
2022-07-29T20:45:23.009Z,57.86
2022-07-29T20:47:52.012Z,57.96
2022-07-29T20:50:23.834Z,58.16
2022-07-29T20:52:51.965Z,57.82
2022-07-29T20:55:20.116Z,58.19
2022-07-29T20:57:47.224Z,57.94
2022-07-29T21:00:15.562Z,58.16
2022-07-29T21:02:42.971Z,57.78
2022-07-29T21:05:10.429Z,58.11
2022-07-29T21:07:37.773Z,57.90
2022-07-29T21:10:05.568Z,58.26
2022-07-29T21:12:34.154Z,58.24
2022-07-29T21:15:06.111Z,58.03
2022-07-29T21:17:40.759Z,57.96
2022-07-29T21:20:08.894Z,58.11
2022-07-29T21:22:35.915Z,58.53
2022-07-29T21:25:03.173Z,58.53
2022-07-29T21:27:49.054Z,58.51
2022-07-29T21:30:16.174Z,58.58
2022-07-29T21:32:43.510Z,58.44
2022-07-29T21:35:27.286Z,58.60
2022-07-29T21:37:59.563Z,58.47
2022-07-29T21:40:26.788Z,58.32
2022-07-29T21:42:53.813Z,58.25
2022-07-29T21:45:20.794Z,58.29
2022-07-29T21:47:47.718Z,58.46
2022-07-29T21:50:14.662Z,58.33
2022-07-29T21:52:41.677Z,58.30
2022-07-29T21:55:10.550Z,58.32
2022-07-29T21:57:38.744Z,58.49
2022-07-29T22:00:08.142Z,58.57
2022-07-29T22:02:35.044Z,58.66
2022-07-29T22:05:02.027Z,58.74
2022-07-29T22:07:54.615Z,58.70
2022-07-29T22:10:16.726Z,59.17
2022-07-29T22:12:45.484Z,58.85
2022-07-29T22:15:12.514Z,59.01
2022-07-29T22:17:41.396Z,59.02
2022-07-29T22:20:08.924Z,59.16
2022-07-29T22:22:36.305Z,59.12
2022-07-29T22:25:03.589Z,59.15
2022-07-29T22:27:30.564Z,59.30
2022-07-29T22:29:58.948Z,59.07
2022-07-29T22:32:26.216Z,59.24
2022-07-29T22:34:53.173Z,59.09
2022-07-29T22:37:20.315Z,59.21
2022-07-29T22:39:47.178Z,59.61
2022-07-29T22:42:14.156Z,59.49
2022-07-29T22:44:41.197Z,59.48
2022-07-29T22:47:08.124Z,59.27
2022-07-29T22:49:35.007Z,59.63
2022-07-29T22:52:02.054Z,59.56
2022-07-29T22:54:28.975Z,59.56
2022-07-29T22:56:55.982Z,59.52
2022-07-29T22:59:22.906Z,59.56
2022-07-29T23:01:49.830Z,59.73
2022-07-29T23:04:16.728Z,59.72
2022-07-29T23:06:43.757Z,59.67
2022-07-29T23:09:10.630Z,59.77
2022-07-29T23:11:37.517Z,59.86
2022-07-29T23:14:04.425Z,59.53
2022-07-29T23:16:36.569Z,59.75
2022-07-29T23:19:03.635Z,59.59
2022-07-29T23:21:30.534Z,59.67
2022-07-29T23:23:57.409Z,59.64
2022-07-29T23:26:24.347Z,59.90
2022-07-29T23:28:51.291Z,59.73
2022-07-29T23:31:19.140Z,59.69
2022-07-29T23:33:46.138Z,59.68
2022-07-29T23:36:13.118Z,59.73
2022-07-29T23:38:44.522Z,59.85
2022-07-29T23:41:11.319Z,59.97
2022-07-29T23:43:38.353Z,60.32
2022-07-29T23:46:05.533Z,60.04
2022-07-29T23:48:33.585Z,60.04
2022-07-29T23:51:01.405Z,60.24
2022-07-29T23:53:29.198Z,60.08
2022-07-29T23:55:56.484Z,59.99
2022-07-29T23:58:23.860Z,59.72
